createdAt,value
2022-08-05T00:02:07.403Z,9.40
2022-08-05T00:04:40.439Z,9.00
2022-08-05T00:07:27.341Z,8.77
2022-08-05T00:10:06.840Z,8.67
2022-08-05T00:12:44.294Z,8.13
2022-08-05T00:15:56.099Z,7.90
2022-08-05T00:18:22.608Z,6.50
2022-08-05T00:20:56.126Z,6.63
2022-08-05T00:23:31.025Z,6.43
2022-08-05T00:26:20.115Z,5.60
2022-08-05T00:28:52.823Z,6.17
2022-08-05T00:31:41.366Z,6.20
2022-08-05T00:34:56.661Z,6.00
2022-08-05T00:37:14.300Z,5.30
2022-08-05T00:39:58.764Z,4.60
2022-08-05T00:42:36.717Z,4.73
2022-08-05T00:45:11.599Z,4.47
2022-08-05T00:47:57.266Z,4.40
2022-08-05T00:50:37.071Z,4.03
2022-08-05T00:53:59.796Z,3.83
2022-08-05T00:56:02.650Z,4.40
2022-08-05T00:58:36.142Z,4.00
2022-08-05T01:01:11.032Z,4.40
2022-08-05T01:03:45.048Z,4.13
2022-08-05T01:06:22.457Z,4.30
2022-08-05T01:09:06.286Z,6.43
2022-08-05T01:11:39.775Z,4.77
2022-08-05T01:14:32.640Z,3.37
2022-08-05T01:17:12.167Z,3.33
2022-08-05T01:20:03.567Z,3.70
2022-08-05T01:22:47.318Z,3.40
2022-08-05T01:25:19.764Z,3.00
2022-08-05T01:28:17.618Z,3.60
2022-08-05T01:30:57.376Z,3.60
2022-08-05T01:33:35.968Z,3.20
2022-08-05T01:36:12.981Z,3.67
2022-08-05T01:38:49.849Z,3.43
2022-08-05T01:41:25.551Z,2.93
2022-08-05T01:43:58.698Z,3.43
2022-08-05T01:46:42.716Z,3.30
2022-08-05T01:49:22.866Z,3.10
2022-08-05T01:52:17.574Z,3.10
2022-08-05T01:54:54.372Z,3.30
2022-08-05T01:58:11.867Z,3.50
2022-08-05T02:00:30.253Z,3.80
2022-08-05T02:03:31.745Z,2.87
2022-08-05T02:06:23.971Z,3.27
2022-08-05T02:08:59.958Z,3.93
2022-08-05T02:11:52.311Z,3.37
2022-08-05T02:14:32.787Z,3.90
2022-08-05T02:18:28.745Z,2.60
2022-08-05T02:20:26.257Z,3.30
2022-08-05T02:23:01.900Z,4.00
2022-08-05T02:25:50.031Z,4.00
2022-08-05T02:28:31.128Z,3.40
2022-08-05T02:31:14.612Z,3.53
2022-08-05T02:34:09.964Z,3.23
2022-08-05T02:36:53.529Z,3.67
2022-08-05T02:39:28.408Z,3.27
2022-08-05T02:42:02.281Z,3.57
2022-08-05T02:44:36.489Z,3.40
2022-08-05T02:47:10.271Z,6.07
2022-08-05T02:49:44.666Z,3.73
2022-08-05T02:52:30.220Z,4.40
2022-08-05T02:55:05.071Z,4.70
2022-08-05T02:58:11.078Z,4.37
2022-08-05T03:00:34.015Z,4.70
2022-08-05T03:03:10.252Z,4.20
2022-08-05T03:06:56.939Z,4.23
2022-08-05T03:08:36.601Z,4.60
2022-08-05T03:11:56.350Z,4.87
2022-08-05T03:14:14.485Z,3.80
2022-08-05T03:16:47.228Z,3.93
2022-08-05T03:19:34.032Z,3.90
2022-08-05T03:22:16.325Z,4.33
2022-08-05T03:24:52.250Z,4.10
2022-08-05T03:27:29.637Z,4.17
2022-08-05T03:30:12.213Z,4.50
2022-08-05T03:32:44.659Z,4.63
2022-08-05T03:35:18.047Z,4.30
2022-08-05T03:37:50.857Z,4.70
2022-08-05T03:40:31.870Z,4.23
2022-08-05T03:43:58.405Z,5.10
2022-08-05T03:45:58.635Z,4.63
2022-08-05T03:48:35.064Z,4.67
2022-08-05T03:52:48.835Z,4.10
2022-08-05T03:55:50.833Z,4.70
2022-08-05T03:57:16.574Z,4.17
2022-08-05T03:59:56.110Z,4.30
2022-08-05T04:02:37.684Z,4.60
2022-08-05T04:05:12.260Z,4.70
2022-08-05T04:07:57.403Z,4.63
2022-08-05T04:10:37.358Z,5.43
2022-08-05T04:13:10.116Z,4.60
2022-08-05T04:16:03.221Z,5.30
2022-08-05T04:18:34.941Z,4.10
2022-08-05T04:21:07.890Z,4.40
2022-08-05T04:24:05.874Z,4.50
2022-08-05T04:26:36.580Z,5.13
2022-08-05T04:29:08.853Z,4.77
2022-08-05T04:31:41.487Z,5.10
2022-08-05T04:34:31.846Z,5.40
2022-08-05T04:37:06.569Z,4.87
2022-08-05T04:39:39.125Z,5.70
2022-08-05T04:42:12.371Z,5.63
2022-08-05T04:44:45.304Z,4.67
2022-08-05T04:47:20.029Z,4.80
2022-08-05T04:50:01.936Z,5.40
2022-08-05T04:52:43.053Z,5.50
2022-08-05T04:55:17.193Z,5.17
2022-08-05T04:58:12.414Z,4.73
2022-08-05T05:00:45.122Z,5.53
2022-08-05T05:03:24.786Z,5.60
2022-08-05T05:06:40.090Z,5.70
2022-08-05T05:08:52.729Z,5.80
2022-08-05T05:11:25.105Z,6.43
2022-08-05T05:14:15.975Z,5.50
2022-08-05T05:16:48.678Z,5.60
2022-08-05T05:19:23.670Z,6.30
2022-08-05T06:10:52.718Z,5.77
2022-08-05T06:13:25.568Z,5.93
2022-08-05T06:16:29.448Z,5.43
2022-08-05T06:18:53.585Z,5.47
2022-08-05T06:21:36.554Z,5.20
2022-08-05T06:24:11.372Z,5.73
2022-08-05T06:26:51.316Z,5.43
2022-08-05T06:29:49.689Z,5.50
2022-08-05T06:32:25.091Z,5.70
2022-08-05T06:35:06.037Z,6.20
2022-08-05T06:37:55.856Z,6.57
2022-08-05T06:40:32.374Z,5.50
2022-08-05T06:43:04.924Z,6.10
2022-08-05T06:45:45.128Z,6.50
2022-08-05T06:48:52.639Z,5.33
2022-08-05T06:51:23.751Z,5.70
2022-08-05T06:54:02.054Z,5.07
2022-08-05T06:56:35.152Z,5.23
2022-08-05T06:59:08.379Z,5.60
2022-08-05T07:01:42.420Z,5.60
2022-08-05T07:04:14.689Z,5.53
2022-08-05T07:06:51.060Z,5.50
2022-08-05T07:09:24.865Z,4.20
2022-08-05T07:12:00.397Z,4.50
2022-08-05T07:14:51.367Z,5.27
2022-08-05T07:18:00.822Z,5.50
2022-08-05T07:20:33.076Z,5.90
2022-08-05T07:23:06.566Z,4.57
2022-08-05T07:25:55.601Z,5.13
2022-08-05T07:28:29.082Z,4.67
2022-08-05T07:31:01.757Z,5.27
2022-08-05T07:33:37.120Z,5.03
2022-08-05T07:36:19.889Z,5.50
2022-08-05T07:38:54.663Z,5.27
2022-08-05T07:42:14.288Z,5.20
2022-08-05T07:44:19.736Z,4.87
2022-08-05T07:46:52.209Z,4.80
2022-08-05T07:49:25.877Z,5.23
2022-08-05T07:51:59.375Z,5.63
2022-08-05T07:54:33.543Z,4.50
2022-08-05T07:57:22.718Z,4.50
2022-08-05T08:00:05.475Z,4.30
2022-08-05T08:03:15.270Z,4.27
2022-08-05T08:05:39.520Z,5.67
2022-08-05T08:08:13.257Z,5.50
2022-08-05T08:10:49.004Z,5.33
2022-08-05T08:13:21.979Z,5.00
2022-08-05T08:16:34.490Z,4.23
2022-08-05T08:18:53.606Z,4.80
2022-08-05T08:21:26.793Z,4.93
2022-08-05T08:24:02.938Z,4.60
2022-08-05T08:26:36.552Z,4.67
2022-08-05T08:30:03.061Z,4.80
2022-08-05T08:32:05.507Z,5.10
2022-08-05T08:34:43.290Z,4.87
2022-08-05T08:37:18.781Z,4.53
2022-08-05T08:39:50.819Z,4.33
2022-08-05T08:42:34.043Z,4.27
2022-08-05T08:45:25.307Z,4.13
2022-08-05T08:48:12.330Z,4.10
2022-08-05T08:51:04.108Z,5.50
2022-08-05T08:53:46.780Z,4.47
2022-08-05T08:56:20.960Z,5.20
2022-08-05T08:58:54.686Z,4.60
2022-08-05T09:01:26.843Z,4.70
2022-08-05T09:04:00.343Z,4.53
2022-08-05T09:06:32.302Z,4.67
2022-08-05T09:09:08.137Z,4.20
2022-08-05T09:11:52.711Z,4.20
2022-08-05T09:14:56.411Z,4.67
2022-08-05T09:17:41.243Z,4.00
2022-08-05T09:20:12.442Z,5.63
2022-08-05T09:23:18.283Z,4.90
2022-08-05T09:26:06.235Z,4.40
2022-08-05T09:28:40.717Z,3.90
2022-08-05T09:31:43.241Z,3.77
2022-08-05T09:34:09.777Z,4.37
2022-08-05T09:36:56.369Z,4.50
2022-08-05T09:39:45.215Z,5.80
2022-08-05T09:42:24.499Z,4.10
2022-08-05T09:46:05.080Z,4.27
2022-08-05T09:47:58.721Z,5.43
2022-08-05T09:50:44.410Z,5.40
2022-08-05T09:53:25.846Z,4.40
2022-08-05T09:56:12.982Z,4.30
2022-08-05T09:58:56.493Z,4.10
2022-08-05T10:01:31.778Z,5.30
2022-08-05T10:04:12.988Z,5.50
2022-08-05T10:06:59.488Z,4.33
2022-08-05T10:09:45.291Z,4.20
2022-08-05T10:12:30.072Z,4.43
2022-08-05T10:15:16.991Z,3.90
2022-08-05T10:18:16.885Z,4.20
2022-08-05T10:20:51.493Z,4.43
2022-08-05T10:23:55.687Z,5.23
2022-08-05T10:26:52.322Z,4.70
2022-08-05T10:29:23.541Z,4.70
2022-08-05T10:32:52.276Z,4.40
2022-08-05T10:35:01.061Z,3.93
2022-08-05T10:37:40.407Z,3.57
2022-08-05T10:40:28.013Z,4.53
2022-08-05T10:43:12.403Z,5.90
2022-08-05T10:45:55.753Z,5.70
2022-08-05T10:48:52.772Z,3.60
2022-08-05T10:51:57.542Z,4.17
2022-08-05T10:55:01.970Z,3.90
2022-08-05T10:57:35.047Z,5.10
2022-08-05T11:00:19.731Z,4.40
2022-08-05T11:03:24.233Z,4.30
2022-08-05T11:06:15.069Z,4.20
2022-08-05T11:09:16.740Z,4.30
2022-08-05T11:11:53.573Z,5.20
2022-08-05T11:14:57.766Z,3.97
2022-08-05T11:17:57.318Z,4.70
2022-08-05T11:20:41.660Z,3.83
2022-08-05T11:23:25.628Z,4.17
2022-08-05T11:26:16.124Z,5.03
2022-08-05T11:29:13.098Z,4.53
2022-08-05T11:31:58.122Z,4.47
2022-08-05T11:34:37.601Z,4.40
2022-08-05T11:38:30.351Z,4.17
2022-08-05T11:40:03.589Z,3.57
2022-08-05T11:42:41.273Z,3.40
2022-08-05T11:45:23.132Z,4.20
2022-08-05T11:48:09.726Z,4.10
2022-08-05T11:50:43.873Z,4.77
2022-08-05T11:53:19.394Z,4.57
2022-08-05T11:55:56.164Z,3.57
2022-08-05T11:58:36.100Z,3.70
2022-08-05T12:01:19.022Z,4.50
2022-08-05T12:03:56.353Z,3.97
2022-08-05T12:06:29.482Z,4.10
2022-08-05T12:09:04.587Z,4.77
2022-08-05T12:11:40.558Z,3.63
2022-08-05T12:14:14.142Z,4.50
2022-08-05T12:16:49.164Z,4.87
2022-08-05T12:20:26.796Z,4.87
2022-08-05T12:22:20.264Z,5.33
2022-08-05T12:24:52.384Z,5.33
2022-08-05T12:27:33.117Z,5.03
2022-08-05T12:30:10.502Z,6.30
2022-08-05T12:32:51.256Z,4.40
2022-08-05T12:35:24.631Z,4.13
2022-08-05T12:38:10.179Z,4.50
2022-08-05T12:40:44.115Z,4.80
2022-08-05T12:43:21.095Z,4.83
2022-08-05T12:45:56.606Z,5.60
2022-08-05T12:48:38.585Z,5.43
2022-08-05T12:52:11.032Z,5.50
2022-08-05T12:54:16.824Z,4.40
2022-08-05T12:56:56.729Z,4.90
2022-08-05T13:00:08.451Z,4.23
2022-08-05T13:02:27.256Z,4.60
2022-08-05T13:05:06.364Z,4.40
2022-08-05T13:08:00.057Z,3.80
2022-08-05T13:10:33.228Z,3.60
2022-08-05T13:13:06.372Z,4.07
2022-08-05T13:15:50.845Z,3.27
2022-08-05T13:18:23.978Z,3.07
2022-08-05T13:20:56.150Z,3.90
2022-08-05T13:23:28.075Z,2.30
2022-08-05T13:26:03.544Z,2.00
2022-08-05T13:28:35.591Z,2.60
2022-08-05T13:31:16.089Z,3.00
2022-08-05T13:34:22.451Z,3.13
2022-08-05T13:36:40.211Z,3.53
2022-08-05T13:39:24.630Z,4.10
2022-08-05T13:42:05.994Z,2.10
2022-08-05T13:44:40.959Z,2.47
2022-08-05T13:47:35.154Z,2.17
2022-08-05T13:50:12.409Z,2.50
2022-08-05T13:52:50.067Z,2.50
2022-08-05T13:55:41.720Z,2.40
2022-08-05T13:58:14.134Z,2.30
2022-08-05T14:01:02.603Z,2.63
2022-08-05T14:03:34.649Z,3.20
2022-08-05T14:06:26.160Z,2.70
2022-08-05T14:08:59.555Z,3.40
2022-08-05T14:11:31.700Z,3.30
2022-08-05T14:14:26.054Z,3.27
2022-08-05T14:17:05.019Z,3.17
2022-08-05T14:19:55.361Z,3.47
2022-08-05T14:22:30.335Z,3.70
2022-08-05T14:25:19.183Z,3.87
2022-08-05T14:27:54.252Z,3.17
2022-08-05T14:30:28.098Z,3.27
2022-08-05T14:33:00.302Z,3.20
2022-08-05T14:35:37.353Z,4.57
2022-08-05T14:38:31.935Z,3.50
2022-08-05T14:41:07.763Z,4.40
2022-08-05T14:43:58.789Z,3.50
2022-08-05T14:46:32.471Z,4.20
2022-08-05T14:49:08.401Z,4.43
2022-08-05T14:51:42.398Z,4.13
2022-08-05T14:54:30.227Z,4.57
2022-08-05T14:57:09.737Z,4.80
2022-08-05T14:59:45.697Z,3.93
2022-08-05T15:02:17.681Z,4.73
2022-08-05T15:04:49.991Z,4.40
2022-08-05T15:08:08.834Z,3.93
2022-08-05T15:10:14.658Z,3.53
2022-08-05T15:13:00.313Z,3.77
2022-08-05T15:15:55.899Z,4.10
2022-08-05T15:18:25.304Z,3.80
2022-08-05T15:20:57.225Z,3.67
2022-08-05T15:23:39.717Z,4.43
2022-08-05T15:26:11.625Z,4.00
2022-08-05T15:28:44.352Z,4.00
2022-08-05T15:31:16.614Z,4.70
2022-08-05T15:34:05.910Z,4.70
2022-08-05T15:36:40.813Z,4.40
2022-08-05T15:41:01.607Z,8.40
2022-08-05T15:42:50.087Z,5.13
2022-08-05T15:44:56.844Z,5.37
2022-08-05T15:47:28.800Z,3.63
2022-08-05T15:50:03.868Z,3.47
2022-08-05T15:52:53.774Z,4.17
2022-08-05T15:56:02.934Z,4.60
2022-08-05T15:58:19.430Z,5.03
2022-08-05T16:01:11.919Z,3.87
2022-08-05T16:03:48.716Z,4.40
2022-08-05T16:06:23.400Z,3.67
2022-08-05T16:08:55.746Z,3.83
2022-08-05T16:11:42.508Z,3.07
2022-08-05T16:14:17.082Z,4.43
2022-08-05T16:16:50.062Z,3.07
2022-08-05T16:20:03.371Z,3.30
2022-08-05T16:22:15.474Z,3.00
2022-08-05T16:24:51.975Z,3.13
2022-08-05T16:27:47.450Z,4.53
2022-08-05T16:30:25.964Z,4.37
2022-08-05T16:32:59.271Z,2.63
2022-08-05T16:35:33.480Z,3.07
2022-08-05T16:38:18.732Z,2.70
2022-08-05T16:41:00.607Z,1.97
2022-08-05T16:43:35.019Z,3.77
2022-08-05T16:46:12.869Z,3.17
2022-08-05T16:48:56.754Z,2.50
2022-08-05T16:51:30.999Z,2.43
2022-08-05T16:54:17.094Z,2.17
2022-08-05T16:56:51.980Z,2.20
2022-08-05T16:59:24.233Z,2.63
2022-08-05T17:02:00.851Z,2.67
2022-08-05T17:04:32.989Z,1.53
2022-08-05T17:07:11.128Z,1.80
2022-08-05T17:09:57.325Z,2.33
2022-08-05T17:12:51.882Z,2.40
2022-08-05T17:15:23.368Z,1.93
2022-08-05T17:18:01.462Z,2.30
2022-08-05T17:20:33.409Z,1.53
2022-08-05T17:23:05.784Z,1.80
2022-08-05T17:25:40.459Z,2.23
2022-08-05T17:28:15.568Z,2.60
2022-08-05T17:30:50.800Z,2.00
2022-08-05T17:33:24.324Z,2.70
2022-08-05T17:36:07.948Z,2.93
2022-08-05T17:38:42.161Z,2.40
2022-08-05T17:42:18.347Z,2.60
2022-08-05T17:44:06.695Z,2.63
2022-08-05T17:46:43.144Z,2.10
2022-08-05T17:49:15.125Z,2.20
2022-08-05T17:51:47.650Z,2.23
2022-08-05T17:54:23.582Z,2.33
2022-08-05T17:56:55.550Z,1.80
2022-08-05T17:59:30.683Z,2.40
2022-08-05T18:02:10.720Z,2.20
2022-08-05T18:04:51.348Z,2.20
2022-08-05T18:07:25.547Z,1.37
2022-08-05T18:10:20.378Z,1.67
2022-08-05T18:12:53.257Z,1.90
2022-08-05T18:15:27.487Z,1.50
2022-08-05T18:18:07.852Z,1.50
2022-08-05T18:20:43.466Z,1.70
2022-08-05T18:23:24.627Z,2.53
2022-08-05T18:26:02.148Z,1.57
2022-08-05T18:28:36.804Z,2.27
2022-08-05T18:31:11.087Z,1.60
2022-08-05T18:33:46.707Z,2.97
2022-08-05T18:36:19.841Z,2.03
2022-08-05T18:38:59.962Z,1.70
2022-08-05T18:41:55.215Z,2.47
2022-08-05T18:44:33.397Z,2.87
2022-08-05T18:47:07.935Z,2.73
2022-08-05T18:50:02.431Z,1.70
2022-08-05T18:52:38.006Z,2.13
2022-08-05T18:55:11.112Z,2.47
2022-08-05T18:57:53.388Z,2.00
2022-08-05T19:00:29.220Z,3.10
2022-08-05T19:03:03.916Z,2.93
2022-08-05T19:06:11.039Z,3.33
2022-08-05T19:08:30.174Z,2.27
2022-08-05T19:11:05.149Z,2.53
2022-08-05T19:13:39.194Z,2.20
2022-08-05T19:16:25.163Z,2.10
2022-08-05T19:19:01.990Z,2.03
2022-08-05T19:21:37.270Z,2.60
2022-08-05T19:24:12.942Z,2.30
2022-08-05T19:26:54.904Z,2.60
2022-08-05T19:29:35.966Z,3.10
2022-08-05T19:32:11.656Z,3.70
2022-08-05T19:34:54.975Z,2.83
2022-08-05T19:37:30.112Z,2.40
2022-08-05T19:40:19.279Z,2.33
2022-08-05T19:43:04.939Z,2.60
2022-08-05T19:45:37.515Z,2.47
2022-08-05T19:48:14.444Z,2.77
2022-08-05T19:50:46.581Z,4.10
2022-08-05T19:54:04.340Z,3.30
2022-08-05T19:56:15.639Z,3.60
2022-08-05T19:58:53.751Z,4.10
2022-08-05T20:01:28.478Z,3.83
2022-08-05T20:04:01.034Z,3.30
2022-08-05T20:06:37.780Z,3.57
2022-08-05T20:09:17.846Z,2.40
2022-08-05T20:11:49.981Z,2.20
2022-08-05T20:14:27.022Z,2.97
2022-08-05T20:16:59.300Z,2.73
2022-08-05T20:19:36.077Z,2.00
2022-08-05T20:22:09.541Z,2.00
2022-08-05T20:24:41.709Z,2.70
2022-08-05T20:27:13.918Z,1.80
2022-08-05T20:29:57.449Z,1.70
2022-08-05T20:32:30.469Z,1.90
2022-08-05T20:35:05.477Z,1.80
2022-08-05T20:38:05.441Z,2.27
2022-08-05T20:40:31.851Z,2.03
2022-08-05T20:43:04.732Z,2.07
2022-08-05T20:45:56.271Z,2.70
2022-08-05T20:48:29.255Z,3.93
2022-08-05T20:51:07.988Z,3.60
2022-08-05T20:53:40.931Z,3.20
2022-08-05T20:56:13.115Z,3.77
2022-08-05T20:58:45.040Z,2.20
2022-08-05T21:01:17.005Z,3.10
2022-08-05T21:03:49.030Z,3.20
2022-08-05T21:06:27.932Z,2.57
2022-08-05T21:09:00.728Z,2.67
2022-08-05T21:12:09.901Z,3.27
2022-08-05T21:14:26.669Z,2.50
2022-08-05T21:16:58.889Z,2.90
2022-08-05T21:19:46.694Z,2.83
2022-08-05T21:22:21.834Z,2.57
2022-08-05T21:24:56.386Z,2.13
2022-08-05T21:27:29.039Z,2.33
2022-08-05T21:30:11.512Z,1.97
2022-08-05T21:32:49.578Z,2.33
2022-08-05T21:35:30.056Z,2.00
2022-08-05T21:38:14.737Z,2.13
2022-08-05T21:40:49.101Z,2.63
2022-08-05T21:43:24.556Z,2.20
2022-08-05T21:46:00.150Z,2.27
2022-08-05T21:48:32.446Z,1.80
2022-08-05T21:52:15.532Z,2.17
2022-08-05T21:54:03.922Z,2.20
2022-08-05T21:56:36.084Z,2.67
2022-08-05T21:59:22.494Z,1.70
2022-08-05T22:01:55.977Z,2.13
2022-08-05T22:04:27.961Z,3.07
2022-08-05T22:06:59.885Z,1.90
2022-08-05T22:09:46.048Z,2.17
2022-08-05T22:12:18.410Z,2.10
2022-08-05T22:14:58.723Z,1.60
2022-08-05T22:17:31.821Z,1.83
2022-08-05T22:20:14.872Z,1.97
2022-08-05T22:23:16.838Z,1.60
2022-08-05T22:26:09.537Z,1.60
2022-08-05T22:28:43.422Z,2.10
2022-08-05T22:31:17.308Z,1.80
2022-08-05T22:33:58.571Z,2.20
2022-08-05T22:36:33.305Z,1.70
2022-08-05T22:39:09.705Z,2.13
2022-08-05T22:42:09.945Z,1.80
2022-08-05T22:44:35.582Z,1.80
2022-08-05T22:47:07.437Z,1.77
2022-08-05T22:50:20.595Z,2.20
2022-08-05T22:52:34.381Z,1.50
2022-08-05T22:55:18.319Z,1.80
2022-08-05T22:57:52.675Z,1.83
2022-08-05T23:00:24.623Z,2.07
2022-08-05T23:02:58.729Z,1.60
2022-08-05T23:05:30.739Z,1.80
2022-08-05T23:08:07.850Z,1.80
2022-08-05T23:10:43.417Z,1.90
2022-08-05T23:13:15.219Z,1.40
2022-08-05T23:15:50.359Z,2.70
2022-08-05T23:18:22.932Z,1.43
2022-08-05T23:20:54.944Z,1.70
2022-08-05T23:23:29.854Z,2.13
2022-08-05T23:26:05.894Z,1.70
2022-08-05T23:28:38.953Z,2.20
2022-08-05T23:31:17.251Z,2.03
2022-08-05T23:34:04.848Z,1.50
2022-08-05T23:36:41.578Z,2.00
2022-08-05T23:39:31.855Z,1.70
2022-08-05T23:42:04.773Z,1.70
2022-08-05T23:44:40.758Z,1.80
2022-08-05T23:47:16.453Z,2.20
2022-08-05T23:49:48.280Z,1.77
2022-08-05T23:52:29.250Z,1.97
2022-08-05T23:55:08.887Z,1.80
2022-08-05T23:57:41.144Z,2.30
